Time;durP1;ratioP1;P1;durP2;ratioP2;P2;SDS_P1;SDS_P2;PMS_P1;PMS_P2;Temp;Humidity;BMP_temperature;BMP_pressure;BME280_temperature;BME280_humidity;BME280_pressure;Samples;Min_cycle;Max_cycle;Signal;HPM_P1;HPM_P2
2022/07/19 00:01:56;;;;;;;9.15;4.82;;;21.30;99.90;;;;;;4886033;29;20068;-76
2022/07/19 00:04:22;;;;;;;9.77;5.53;;;21.20;99.90;;;;;;4894825;29;20032;-77
2022/07/19 00:06:49;;;;;;;8.18;4.90;;;21.10;99.90;;;;;;4890719;29;20080;-77
2022/07/19 00:09:14;;;;;;;7.93;4.70;;;21.10;99.90;;;;;;4893591;29;20120;-75
2022/07/19 00:11:40;;;;;;;9.32;5.25;;;21.10;99.90;;;;;;4890357;29;20436;-74
2022/07/19 00:14:06;;;;;;;8.80;4.70;;;21.00;99.90;;;;;;4894799;29;20056;-76
2022/07/19 00:16:31;;;;;;;8.02;5.38;;;21.00;99.90;;;;;;4889733;29;20052;-76
2022/07/19 00:18:57;;;;;;;10.30;4.95;;;20.90;99.90;;;;;;4892726;29;20059;-76
2022/07/19 00:21:23;;;;;;;7.93;4.82;;;21.00;99.90;;;;;;4896167;29;20506;-77
2022/07/19 00:23:48;;;;;;;8.93;5.13;;;21.00;99.90;;;;;;4891508;29;20132;-75
2022/07/19 00:26:14;;;;;;;9.45;4.78;;;20.90;99.90;;;;;;4892821;29;20055;-75
2022/07/19 00:28:40;;;;;;;8.65;5.35;;;20.90;99.90;;;;;;4894013;29;20497;-77
2022/07/19 00:31:05;;;;;;;9.50;5.05;;;20.90;99.90;;;;;;4894242;29;20048;-77
2022/07/19 00:33:31;;;;;;;8.50;5.57;;;20.80;99.90;;;;;;4893968;29;20404;-75
2022/07/19 00:35:57;;;;;;;8.25;4.97;;;20.80;99.90;;;;;;4893346;29;20067;-76
2022/07/19 00:38:22;;;;;;;7.70;5.38;;;20.70;99.90;;;;;;4891902;29;20052;-75
2022/07/19 00:40:48;;;;;;;8.18;5.35;;;20.70;99.90;;;;;;4893173;29;20099;-76
2022/07/19 00:43:14;;;;;;;9.55;5.63;;;20.70;99.90;;;;;;4892833;29;20421;-76
2022/07/19 00:45:39;;;;;;;8.15;5.32;;;20.70;99.90;;;;;;4893441;29;20503;-74
2022/07/19 00:48:05;;;;;;;8.07;4.93;;;20.60;99.90;;;;;;4894992;29;20044;-77
2022/07/19 00:50:32;;;;;;;10.18;5.82;;;20.60;99.90;;;;;;4888024;29;20055;-76
2022/07/19 00:53:00;;;;;;;8.13;5.10;;;20.60;99.90;;;;;;4890228;29;20151;-78
2022/07/19 00:55:29;;;;;;;7.05;5.22;;;20.50;99.90;;;;;;4894248;29;20511;-75
2022/07/19 00:57:56;;;;;;;11.65;5.20;;;20.60;99.90;;;;;;4890520;29;20041;-78
2022/07/19 01:00:23;;;;;;;8.60;5.25;;;20.50;99.90;;;;;;4890311;29;20048;-76
2022/07/19 01:02:50;;;;;;;7.95;5.20;;;20.50;99.90;;;;;;4892837;29;20051;-79
2022/07/19 01:05:16;;;;;;;8.95;5.72;;;20.50;99.90;;;;;;4889190;29;20488;-75
2022/07/19 01:07:42;;;;;;;11.35;5.45;;;20.50;99.90;;;;;;4893310;29;20499;-76
2022/07/19 01:10:10;;;;;;;9.32;5.40;;;20.50;99.90;;;;;;4895678;29;20140;-75
2022/07/19 01:12:36;;;;;;;11.05;5.80;;;20.50;99.90;;;;;;4885546;29;20049;-76
2022/07/19 01:15:11;;;;;;;10.13;6.30;;;20.40;99.90;;;;;;4889650;29;20044;-80
2022/07/19 01:17:37;;;;;;;8.65;5.40;;;20.40;99.90;;;;;;4893813;29;20056;-76
2022/07/19 01:20:03;;;;;;;8.52;5.65;;;20.40;99.90;;;;;;4892224;29;20385;-75
2022/07/19 01:22:29;;;;;;;11.20;5.90;;;20.40;99.90;;;;;;4891792;29;20060;-75
2022/07/19 01:24:54;;;;;;;7.13;5.15;;;20.30;99.90;;;;;;4896568;29;20041;-75
2022/07/19 01:27:20;;;;;;;8.68;5.43;;;20.30;99.90;;;;;;4898726;29;20492;-76
2022/07/19 01:29:46;;;;;;;9.85;5.25;;;20.30;99.90;;;;;;4893286;29;20084;-76
2022/07/19 01:32:11;;;;;;;7.80;5.53;;;20.20;99.90;;;;;;4892561;29;20058;-76
2022/07/19 01:34:37;;;;;;;8.35;5.20;;;20.20;99.90;;;;;;4891541;29;20040;-77
2022/07/19 01:37:02;;;;;;;11.05;5.60;;;20.10;99.90;;;;;;4888275;29;20048;-77
2022/07/19 01:39:28;;;;;;;8.48;5.00;;;20.10;99.90;;;;;;4893013;29;20049;-79
2022/07/19 01:41:54;;;;;;;10.43;5.60;;;20.10;99.90;;;;;;4892170;29;20055;-75
2022/07/19 01:44:19;;;;;;;9.50;5.45;;;20.00;99.90;;;;;;4889363;29;20072;-76
2022/07/19 01:46:45;;;;;;;7.00;5.45;;;20.00;99.90;;;;;;4879029;29;20084;-77
2022/07/19 01:49:10;;;;;;;9.20;5.38;;;20.00;99.90;;;;;;4892152;29;20052;-76
2022/07/19 01:51:36;;;;;;;7.57;5.47;;;19.90;99.90;;;;;;4891507;29;20055;-76
2022/07/19 01:54:02;;;;;;;7.20;5.72;;;19.90;99.90;;;;;;4893068;29;20040;-76
2022/07/19 01:56:28;;;;;;;8.93;5.65;;;19.90;99.90;;;;;;4891420;29;20045;-75
2022/07/19 01:58:53;;;;;;;7.95;5.20;;;19.90;99.90;;;;;;4892899;29;20139;-76
2022/07/19 02:01:19;;;;;;;9.13;5.43;;;19.90;99.90;;;;;;4891317;29;20505;-75
2022/07/19 02:03:44;;;;;;;6.40;5.20;;;19.80;99.90;;;;;;4891615;29;20081;-78
2022/07/19 02:06:10;;;;;;;10.20;5.53;;;19.80;99.90;;;;;;4890862;29;20048;-77
2022/07/19 02:08:37;;;;;;;7.75;5.28;;;19.70;99.90;;;;;;4889129;29;20069;-75
2022/07/19 02:11:34;;;;;;;12.68;5.70;;;19.70;99.90;;;;;;4890396;29;20147;-75
2022/07/19 02:13:48;;;;;;;8.27;5.43;;;19.70;99.90;;;;;;4892559;29;20075;-78
2022/07/19 02:16:14;;;;;;;11.02;5.97;;;19.70;99.90;;;;;;4891570;29;20468;-77
2022/07/19 02:18:40;;;;;;;8.43;5.90;;;19.70;99.90;;;;;;4891768;29;20043;-76
2022/07/19 02:21:05;;;;;;;10.15;5.85;;;19.60;99.90;;;;;;4891608;29;20056;-75
2022/07/19 02:23:31;;;;;;;9.38;5.68;;;19.60;99.90;;;;;;4892558;29;20109;-76
2022/07/19 02:25:56;;;;;;;9.45;6.10;;;19.60;99.90;;;;;;4890366;29;20052;-76
2022/07/19 02:28:22;;;;;;;11.27;6.00;;;19.50;99.90;;;;;;4893188;29;20131;-76
2022/07/19 02:30:48;;;;;;;9.43;5.90;;;19.50;99.90;;;;;;4896796;29;20119;-77
2022/07/19 02:33:13;;;;;;;9.52;6.05;;;19.50;99.90;;;;;;4896323;29;20040;-77
2022/07/19 02:35:39;;;;;;;9.05;6.22;;;19.40;99.90;;;;;;4898544;29;20059;-77
2022/07/19 02:38:05;;;;;;;8.90;6.20;;;19.40;99.90;;;;;;4903828;29;20036;-77
2022/07/19 02:40:30;;;;;;;9.57;6.32;;;19.40;99.90;;;;;;4896545;29;20460;-75
2022/07/19 02:42:56;;;;;;;9.45;6.65;;;19.30;99.90;;;;;;4895284;29;20045;-76
2022/07/19 02:45:21;;;;;;;7.40;5.97;;;19.30;99.90;;;;;;4880779;29;20478;-75
2022/07/19 02:47:47;;;;;;;11.50;6.85;;;19.30;99.90;;;;;;4896252;29;20043;-77
2022/07/19 02:50:13;;;;;;;9.60;6.80;;;19.30;99.90;;;;;;4894208;29;20190;-76
2022/07/19 02:52:38;;;;;;;9.50;6.60;;;19.30;99.90;;;;;;4893663;29;20495;-77
2022/07/19 02:55:06;;;;;;;9.73;6.45;;;19.20;99.90;;;;;;4896123;29;20048;-75
2022/07/19 02:57:31;;;;;;;;;;;19.20;99.90;;;;;;4895976;29;20048;-78
2022/07/19 02:59:57;;;;;;;8.13;6.47;;;19.10;99.90;;;;;;4894273;29;19966;-77
2022/07/19 03:02:23;;;;;;;11.38;7.22;;;19.00;99.90;;;;;;4891054;29;20080;-75
2022/07/19 03:04:49;;;;;;;11.23;7.20;;;19.00;99.90;;;;;;4894123;29;20511;-75
2022/07/19 03:07:14;;;;;;;10.27;7.38;;;19.10;99.90;;;;;;4895544;29;20099;-77
2022/07/19 03:09:40;;;;;;;10.60;6.75;;;19.00;99.90;;;;;;4894989;29;20072;-75
2022/07/19 03:12:06;;;;;;;9.45;7.00;;;19.00;99.90;;;;;;4894935;29;20048;-77
2022/07/19 03:14:32;;;;;;;9.48;6.70;;;19.00;99.90;;;;;;4895182;29;20092;-77
2022/07/19 03:16:58;;;;;;;11.52;7.05;;;19.00;99.90;;;;;;4900218;29;20092;-77
2022/07/19 03:19:26;;;;;;;15.43;7.00;;;19.00;99.90;;;;;;4894063;29;20033;-77
2022/07/19 03:21:53;;;;;;;10.18;7.70;;;18.90;99.90;;;;;;4890613;29;20072;-77
2022/07/19 03:24:18;;;;;;;10.55;8.02;;;18.90;99.90;;;;;;4883819;29;20040;-74
2022/07/19 03:26:44;;;;;;;11.07;7.70;;;18.90;99.90;;;;;;4894928;29;20044;-76
2022/07/19 03:29:10;;;;;;;10.77;7.88;;;18.80;99.90;;;;;;4892459;29;20530;-76
2022/07/19 03:31:36;;;;;;;12.18;7.38;;;18.80;99.90;;;;;;4894366;29;20044;-77
2022/07/19 03:34:01;;;;;;;13.23;7.45;;;18.90;99.90;;;;;;4894748;29;20056;-76
2022/07/19 03:36:27;;;;;;;8.98;7.90;;;18.80;99.90;;;;;;4894738;29;20189;-78
2022/07/19 03:38:53;;;;;;;10.85;7.38;;;18.80;99.90;;;;;;4893589;29;20072;-76
2022/07/19 03:41:19;;;;;;;10.77;7.47;;;18.80;99.90;;;;;;4894726;29;20044;-77
2022/07/19 03:43:45;;;;;;;10.75;7.55;;;18.80;99.90;;;;;;4894793;29;20169;-77
2022/07/19 03:46:10;;;;;;;11.35;7.63;;;18.80;99.90;;;;;;4893881;29;20229;-77
2022/07/19 03:48:36;;;;;;;9.88;7.00;;;18.80;99.90;;;;;;4889448;29;20542;-75
2022/07/19 03:51:02;;;;;;;11.93;7.75;;;18.80;99.90;;;;;;4892746;29;20200;-74
2022/07/19 03:53:28;;;;;;;11.23;8.02;;;18.80;99.90;;;;;;4893395;29;20056;-78
2022/07/19 03:55:53;;;;;;;11.52;7.90;;;18.80;99.90;;;;;;4893644;29;20048;-77
2022/07/19 03:58:19;;;;;;;10.50;8.23;;;18.80;99.90;;;;;;4895001;29;20457;-77
2022/07/19 04:00:45;;;;;;;9.93;7.55;;;18.80;99.90;;;;;;4895758;29;20173;-77
2022/07/19 04:03:11;;;;;;;10.82;7.50;;;18.70;99.90;;;;;;4890911;29;20048;-75
2022/07/19 04:05:37;;;;;;;11.00;8.13;;;18.70;99.90;;;;;;4895476;29;20119;-75
2022/07/19 04:08:03;;;;;;;10.85;7.80;;;18.70;99.90;;;;;;4893500;29;20305;-73
2022/07/19 04:10:29;;;;;;;11.40;8.07;;;18.70;99.90;;;;;;4891342;29;20409;-73
2022/07/19 04:12:55;;;;;;;10.90;7.40;;;18.70;99.90;;;;;;4893518;29;21928;-73
2022/07/19 04:15:20;;;;;;;11.30;7.85;;;18.70;99.90;;;;;;4894966;29;20049;-72
2022/07/19 04:17:46;;;;;;;11.63;7.45;;;18.60;99.90;;;;;;4891471;29;20092;-73
2022/07/19 04:20:12;;;;;;;9.00;6.97;;;18.60;99.90;;;;;;4893127;29;20460;-73
2022/07/19 04:22:38;;;;;;;14.77;7.40;;;18.60;99.90;;;;;;4894723;29;20048;-73
2022/07/19 04:25:04;;;;;;;13.23;7.97;;;18.60;99.90;;;;;;4890098;29;20403;-73
2022/07/19 04:27:30;;;;;;;11.88;7.82;;;18.60;99.90;;;;;;4890149;29;20131;-72
2022/07/19 04:29:56;;;;;;;11.48;7.72;;;18.70;99.90;;;;;;4895891;29;20463;-73
2022/07/19 04:32:22;;;;;;;11.43;8.20;;;18.70;99.90;;;;;;4893776;29;20045;-73
2022/07/19 04:34:48;;;;;;;10.68;7.78;;;18.70;99.90;;;;;;4892810;29;20472;-73
2022/07/19 04:37:14;;;;;;;15.43;7.75;;;18.80;99.90;;;;;;4893484;29;20404;-72
2022/07/19 04:39:39;;;;;;;12.77;8.43;;;18.80;99.90;;;;;;4890649;29;20489;-72
2022/07/19 04:42:05;;;;;;;12.77;8.10;;;18.90;99.90;;;;;;4891934;29;20132;-72
2022/07/19 04:44:31;;;;;;;12.52;8.48;;;19.00;99.90;;;;;;4894463;29;20135;-73
2022/07/19 04:46:56;;;;;;;15.45;8.10;;;19.00;99.90;;;;;;4890973;29;20081;-73
2022/07/19 04:49:22;;;;;;;11.52;8.15;;;19.10;99.90;;;;;;4889934;29;20140;-73
2022/07/19 04:51:47;;;;;;;14.00;8.35;;;19.20;99.90;;;;;;4891051;29;20068;-73
2022/07/19 04:54:13;;;;;;;10.77;7.88;;;19.30;99.90;;;;;;4891110;29;20045;-73
2022/07/19 04:56:39;;;;;;;11.13;8.13;;;19.40;99.90;;;;;;4895046;29;20044;-73
2022/07/19 04:59:04;;;;;;;10.60;8.30;;;19.40;99.90;;;;;;4889991;29;20049;-73
2022/07/19 05:01:30;;;;;;;9.60;7.63;;;19.60;99.90;;;;;;4893404;29;20381;-73
2022/07/19 05:04:05;;;;;;;10.80;7.68;;;19.60;99.90;;;;;;4893006;29;20048;-73
2022/07/19 05:06:31;;;;;;;11.73;7.55;;;19.80;99.90;;;;;;4890359;29;20035;-73
2022/07/19 05:08:56;;;;;;;13.05;7.80;;;19.90;99.90;;;;;;4896527;29;20044;-73
2022/07/19 05:11:23;;;;;;;10.75;7.50;;;20.00;99.90;;;;;;4899084;29;20392;-73
2022/07/19 05:13:48;;;;;;;9.90;7.38;;;20.10;99.90;;;;;;4891896;29;20090;-73
2022/07/19 05:16:14;;;;;;;12.25;7.50;;;20.20;99.90;;;;;;4890198;29;20052;-73
2022/07/19 05:18:39;;;;;;;15.48;7.40;;;20.30;99.90;;;;;;4888998;29;20053;-73
2022/07/19 05:21:05;;;;;;;13.35;7.47;;;20.30;99.90;;;;;;4889813;29;20052;-73
2022/07/19 05:23:31;;;;;;;9.00;7.30;;;20.40;99.90;;;;;;4892076;29;20165;-73
2022/07/19 05:25:57;;;;;;;13.63;7.70;;;20.50;99.90;;;;;;4892289;29;20045;-73
2022/07/19 05:28:23;;;;;;;13.82;7.13;;;20.50;99.90;;;;;;4892989;29;20119;-73
2022/07/19 05:30:49;;;;;;;10.73;7.15;;;20.60;99.90;;;;;;4886692;29;20192;-73
2022/07/19 05:33:16;;;;;;;10.68;7.43;;;20.70;99.90;;;;;;4885891;29;20493;-73
2022/07/19 05:35:42;;;;;;;9.27;7.45;;;20.80;99.90;;;;;;4890974;29;20423;-73
2022/07/19 05:38:08;;;;;;;9.82;7.10;;;20.80;99.90;;;;;;4893062;29;20041;-73
2022/07/19 05:40:35;;;;;;;12.30;6.97;;;20.90;99.90;;;;;;4891514;29;20059;-76
2022/07/19 05:43:01;;;;;;;10.57;7.25;;;21.10;99.90;;;;;;4881321;29;20404;-75
2022/07/19 05:45:27;;;;;;;12.35;7.00;;;21.20;99.90;;;;;;4888385;29;20064;-75
2022/07/19 05:47:53;;;;;;;13.85;6.80;;;21.30;99.90;;;;;;4882687;29;20059;-75
2022/07/19 05:54:06;;;;;;;14.38;6.75;;;21.50;99.90;;;;;;4874562;29;20208;-76
2022/07/19 05:56:40;;;;;;;10.73;6.50;;;21.50;99.90;;;;;;4890137;29;20139;-80
2022/07/19 05:59:09;;;;;;;9.38;6.43;;;21.60;99.90;;;;;;4890730;29;20571;-78
2022/07/19 06:12:52;;;;;;;13.93;6.30;;;22.10;99.90;;;;;;4925139;23;20912;-79
2022/07/19 06:16:13;;;;;;;8.35;5.90;;;22.10;99.90;;;;;;4906789;29;20044;-81
2022/07/19 06:26:15;;;;;;;;;;;;;;;;;;;;;
2022/07/19 06:29:25;;;;;;;9.00;6.18;;;22.60;99.90;;;;;;4902912;29;20180;-80
2022/07/19 06:35:11;;;;;;;11.48;5.97;;;22.80;99.90;;;;;;4931590;23;20055;-82
2022/07/19 06:37:52;;;;;;;12.63;6.30;;;22.80;99.90;;;;;;4901166;29;20323;-79
2022/07/19 06:40:40;;;;;;;13.48;5.97;;;22.90;99.90;;;;;;4900896;29;20123;-82
2022/07/19 06:45:31;;;;;;;10.25;5.75;;;23.10;99.90;;;;;;4911069;23;20567;-80
2022/07/19 06:48:06;;;;;;;11.93;5.90;;;23.20;99.90;;;;;;4908638;29;20048;-79
2022/07/19 06:51:23;;;;;;;9.88;5.20;;;23.30;99.90;;;;;;4913508;23;20056;-80
2022/07/19 06:54:10;;;;;;;9.18;5.43;;;23.40;99.90;;;;;;4905473;29;20044;-78
2022/07/19 06:56:36;;;;;;;8.35;5.32;;;23.50;99.90;;;;;;4909745;29;20743;-81
2022/07/19 06:59:02;;;;;;;10.13;5.43;;;23.60;99.90;;;;;;4904847;29;20468;-82
2022/07/19 07:01:39;;;;;;;9.15;5.68;;;23.70;99.90;;;;;;4912069;29;20044;-77
2022/07/19 07:04:14;;;;;;;8.35;5.30;;;23.80;99.90;;;;;;4910712;29;20415;-79
2022/07/19 07:06:40;;;;;;;11.55;5.63;;;23.90;99.90;;;;;;4909484;29;20047;-79
2022/07/19 07:09:20;;;;;;;10.88;5.60;;;24.00;99.90;;;;;;4911484;29;20047;-80
2022/07/19 07:11:46;;;;;;;15.95;5.82;;;24.10;99.90;;;;;;4914531;29;20058;-79
2022/07/19 07:14:12;;;;;;;14.80;5.93;;;24.20;99.90;;;;;;4912800;29;20048;-79
2022/07/19 07:16:39;;;;;;;18.50;6.47;;;24.30;99.90;;;;;;4915887;29;20052;-78
2022/07/19 07:19:05;;;;;;;8.48;5.40;;;24.40;99.90;;;;;;4910817;29;20123;-76
2022/07/19 07:21:34;;;;;;;9.90;5.07;;;24.40;99.90;;;;;;4911340;29;20167;-75
2022/07/19 07:24:01;;;;;;;9.90;5.18;;;24.50;99.90;;;;;;4912321;23;20055;-77
2022/07/19 07:26:27;;;;;;;13.02;5.13;;;24.60;99.90;;;;;;4924968;29;20040;-76
2022/07/19 07:28:53;;;;;;;10.23;4.63;;;24.70;99.90;;;;;;4910053;29;20059;-77
2022/07/19 07:31:19;;;;;;;9.13;4.85;;;24.80;99.90;;;;;;4913651;29;20048;-78
2022/07/19 07:33:45;;;;;;;8.52;5.18;;;24.90;99.70;;;;;;4912040;29;20040;-80
2022/07/19 07:36:11;;;;;;;9.60;5.28;;;25.00;99.40;;;;;;4903069;29;20048;-74
2022/07/19 07:38:37;;;;;;;10.23;4.53;;;25.10;99.10;;;;;;4910742;29;20088;-76
2022/07/19 07:41:06;;;;;;;7.65;4.78;;;25.20;98.00;;;;;;4904057;29;20056;-74
2022/07/19 07:43:31;;;;;;;9.73;5.00;;;25.30;98.20;;;;;;4915883;29;20120;-75
2022/07/19 07:45:57;;;;;;;11.13;4.80;;;25.40;98.90;;;;;;4914175;29;20516;-77
2022/07/19 07:48:23;;;;;;;8.85;4.50;;;25.50;98.70;;;;;;4911514;29;20425;-74
2022/07/19 07:50:49;;;;;;;8.23;4.32;;;25.60;98.60;;;;;;4912960;29;20047;-75
2022/07/19 07:53:14;;;;;;;5.90;4.30;;;25.70;99.10;;;;;;4904827;29;20136;-77
2022/07/19 07:55:41;;;;;;;9.15;4.22;;;25.80;98.30;;;;;;4911452;29;20052;-75
2022/07/19 07:58:11;;;;;;;9.77;4.67;;;25.90;98.40;;;;;;4910212;29;20341;-78
2022/07/19 08:00:38;;;;;;;8.75;3.97;;;26.00;98.60;;;;;;4906161;29;20309;-75
2022/07/19 08:03:04;;;;;;;7.22;4.32;;;26.20;97.10;;;;;;4906582;29;20054;-75
2022/07/19 08:05:30;;;;;;;13.40;4.72;;;26.20;96.50;;;;;;4902335;29;20403;-75
2022/07/19 08:07:56;;;;;;;6.80;4.07;;;26.40;97.10;;;;;;4900964;29;20044;-76
2022/07/19 08:10:25;;;;;;;7.07;3.90;;;26.50;95.70;;;;;;4906352;29;20440;-75
2022/07/19 08:12:51;;;;;;;9.50;4.18;;;26.60;94.50;;;;;;4903914;29;20044;-76
2022/07/19 08:15:17;;;;;;;9.48;4.50;;;26.70;93.80;;;;;;4907859;29;20515;-77
2022/07/19 08:17:43;;;;;;;10.20;3.83;;;26.80;94.10;;;;;;4901916;29;20507;-79
2022/07/19 08:20:09;;;;;;;7.63;4.35;;;26.90;93.80;;;;;;4902848;29;20047;-74
2022/07/19 08:22:35;;;;;;;8.23;4.17;;;27.00;95.20;;;;;;4915419;29;20052;-78
2022/07/19 08:25:01;;;;;;;9.20;4.27;;;27.00;96.20;;;;;;4910499;29;20064;-78
2022/07/19 08:27:27;;;;;;;7.32;3.95;;;27.10;96.90;;;;;;4913341;29;20123;-76
2022/07/19 08:29:52;;;;;;;9.47;4.00;;;27.20;96.20;;;;;;4909925;29;20164;-77
2022/07/19 08:32:18;;;;;;;7.32;3.70;;;27.30;94.00;;;;;;4907062;29;22002;-74
2022/07/19 08:34:44;;;;;;;7.40;3.67;;;27.40;93.80;;;;;;4906460;29;21642;-73
2022/07/19 08:37:09;;;;;;;10.73;3.80;;;27.50;96.50;;;;;;4909113;29;20135;-73
2022/07/19 08:39:35;;;;;;;8.50;4.27;;;27.70;94.50;;;;;;4910587;29;20115;-74
2022/07/19 08:42:00;;;;;;;9.33;3.90;;;27.80;94.60;;;;;;4912071;29;20551;-74
2022/07/19 08:44:28;;;;;;;6.33;3.90;;;27.90;93.90;;;;;;4911508;29;20096;-74
2022/07/19 08:46:54;;;;;;;7.38;3.70;;;28.00;92.90;;;;;;4909478;29;20052;-73
2022/07/19 08:49:20;;;;;;;11.97;3.80;;;28.10;90.80;;;;;;4900441;29;20048;-76
2022/07/19 08:51:48;;;;;;;8.32;3.50;;;28.20;87.70;;;;;;4920091;29;20368;-74
2022/07/19 08:54:14;;;;;;;5.97;3.28;;;28.30;85.50;;;;;;4917781;29;20503;-74
2022/07/19 08:59:25;;;;;;;11.50;3.78;;;28.50;82.50;;;;;;4911347;29;20452;-75
2022/07/19 09:01:51;;;;;;;6.90;3.35;;;28.60;78.10;;;;;;4907752;29;20040;-75
2022/07/19 09:04:19;;;;;;;5.57;3.10;;;28.70;74.10;;;;;;4910919;29;20135;-73
2022/07/19 09:06:49;;;;;;;8.80;3.40;;;28.80;73.00;;;;;;4925278;29;20308;-74
2022/07/19 09:09:20;;;;;;;6.53;3.28;;;28.90;72.20;;;;;;4912098;29;20131;-74
2022/07/19 09:11:48;;;;;;;7.53;3.83;;;29.00;74.10;;;;;;4908245;29;20060;-75
2022/07/19 09:14:28;;;;;;;9.65;4.03;;;29.10;75.40;;;;;;4908505;29;20479;-76
2022/07/19 09:17:11;;;;;;;8.30;3.33;;;29.10;75.30;;;;;;4901060;29;20052;-73
2022/07/19 09:19:41;;;;;;;8.70;3.70;;;29.20;84.00;;;;;;4908524;29;20068;-75
2022/07/19 09:22:17;;;;;;;9.40;3.67;;;29.30;79.40;;;;;;4907829;29;20082;-74
2022/07/19 09:24:50;;;;;;;8.33;3.73;;;29.40;72.80;;;;;;4911700;29;20136;-73
2022/07/19 09:27:25;;;;;;;9.10;3.30;;;29.50;75.90;;;;;;4910337;29;20056;-74
2022/07/19 09:29:55;;;;;;;6.50;3.53;;;29.60;74.40;;;;;;4910599;29;20435;-75
2022/07/19 09:32:23;;;;;;;7.45;3.50;;;29.70;73.00;;;;;;4913265;29;20079;-74
2022/07/19 09:34:57;;;;;;;8.10;3.60;;;29.80;72.10;;;;;;4909036;29;20044;-72
2022/07/19 09:37:32;;;;;;;14.82;3.85;;;29.90;67.90;;;;;;4910908;29;20051;-73
2022/07/19 09:40:08;;;;;;;8.45;3.38;;;30.00;67.40;;;;;;4903535;29;20083;-72
2022/07/19 09:42:42;;;;;;;7.97;3.65;;;30.10;62.70;;;;;;4910570;29;20513;-77
2022/07/19 09:45:10;;;;;;;7.07;3.40;;;30.20;63.70;;;;;;4908141;29;20052;-77
2022/07/19 09:47:41;;;;;;;7.68;3.20;;;30.20;59.40;;;;;;4915416;29;20123;-76
2022/07/19 09:50:14;;;;;;;6.45;3.17;;;30.30;59.80;;;;;;4913583;29;20060;-73
2022/07/19 09:52:40;;;;;;;9.38;3.13;;;30.40;58.80;;;;;;4905648;29;20055;-74
2022/07/19 09:55:08;;;;;;;9.17;3.50;;;30.50;57.10;;;;;;4915207;29;20044;-73
2022/07/19 09:57:36;;;;;;;7.28;3.42;;;30.60;56.80;;;;;;4911071;29;20051;-73
2022/07/19 10:00:06;;;;;;;5.43;3.08;;;30.60;59.20;;;;;;4924827;29;20503;-74
2022/07/19 10:02:35;;;;;;;6.97;3.42;;;30.70;57.80;;;;;;4912880;29;20494;-74
2022/07/19 10:05:02;;;;;;;8.40;3.63;;;30.80;56.40;;;;;;4911909;29;20048;-74
2022/07/19 10:07:28;;;;;;;8.52;3.38;;;30.80;55.70;;;;;;4913253;29;20056;-75
2022/07/19 10:09:55;;;;;;;7.33;3.50;;;30.90;53.90;;;;;;4907591;29;20047;-74
2022/07/19 10:12:21;;;;;;;6.93;3.10;;;31.10;53.80;;;;;;4914165;29;20075;-73
2022/07/19 10:14:47;;;;;;;5.65;3.22;;;31.10;51.90;;;;;;4904306;29;20043;-76
2022/07/19 10:17:16;;;;;;;7.47;3.20;;;31.20;51.00;;;;;;4906164;29;20040;-77
2022/07/19 10:19:47;;;;;;;6.60;3.38;;;31.30;51.60;;;;;;4907942;29;20135;-75
2022/07/19 10:22:24;;;;;;;8.07;2.85;;;31.30;50.80;;;;;;4913647;29;20131;-73
2022/07/19 10:24:55;;;;;;;;;;;31.40;49.50;;;;;;4906685;29;20056;-75
2022/07/19 10:27:24;;;;;;;8.73;2.80;;;31.50;50.60;;;;;;4913455;29;19926;-74
2022/07/19 10:30:12;;;;;;;8.32;2.78;;;31.60;46.70;;;;;;4912482;29;20052;-73
2022/07/19 10:32:42;;;;;;;6.97;2.67;;;31.70;47.70;;;;;;4914232;29;20052;-74
2022/07/19 10:35:17;;;;;;;5.10;2.67;;;31.70;47.40;;;;;;4911236;29;20080;-72
2022/07/19 10:37:45;;;;;;;4.75;2.78;;;31.90;45.30;;;;;;4903644;29;20104;-72
2022/07/19 10:40:11;;;;;;;8.43;2.58;;;31.90;45.40;;;;;;4913248;29;20051;-74
2022/07/19 10:43:10;;;;;;;10.00;2.77;;;32.00;44.90;;;;;;4916268;29;20055;-75
2022/07/19 10:45:37;;;;;;;4.97;2.45;;;32.10;44.80;;;;;;4913313;29;20664;-75
2022/07/19 10:48:06;;;;;;;8.40;2.70;;;32.20;46.30;;;;;;4914922;29;20099;-74
2022/07/19 10:51:05;;;;;;;7.28;2.50;;;32.20;45.20;;;;;;4916762;29;20040;-75
2022/07/19 10:53:40;;;;;;;6.43;2.63;;;32.30;44.60;;;;;;4885225;29;20078;-75
2022/07/19 10:56:20;;;;;;;5.20;2.95;;;32.40;44.50;;;;;;4927101;29;20067;-76
2022/07/19 10:58:54;;;;;;;3.70;2.33;;;32.50;43.40;;;;;;4910219;29;20556;-74
2022/07/19 11:01:21;;;;;;;5.72;2.85;;;32.60;43.80;;;;;;4908171;29;20841;-76
2022/07/19 11:03:49;;;;;;;2.97;2.03;;;32.60;43.30;;;;;;4908179;29;20554;-75
2022/07/19 11:06:31;;;;;;;6.45;2.45;;;32.80;42.70;;;;;;4910897;29;20369;-75
2022/07/19 11:08:58;;;;;;;9.15;3.13;;;32.90;42.20;;;;;;4914769;29;20063;-76
2022/07/19 11:11:26;;;;;;;11.88;2.38;;;33.00;42.90;;;;;;4915088;29;20108;-77
2022/07/19 11:13:54;;;;;;;6.18;2.53;;;33.00;43.60;;;;;;4912450;29;20120;-75
2022/07/19 11:16:21;;;;;;;3.95;2.28;;;33.00;42.70;;;;;;4913178;29;20118;-75
2022/07/19 11:18:47;;;;;;;5.78;2.20;;;33.10;41.70;;;;;;4911088;29;20236;-75
2022/07/19 11:21:15;;;;;;;7.35;2.70;;;33.20;41.70;;;;;;4914382;29;20032;-74
2022/07/19 11:23:42;;;;;;;6.72;2.17;;;33.30;41.00;;;;;;4915597;29;20063;-75
2022/07/19 11:26:10;;;;;;;5.70;2.10;;;33.30;40.60;;;;;;4910293;29;20151;-75
2022/07/19 11:28:38;;;;;;;7.88;2.10;;;33.40;41.20;;;;;;4910497;29;20040;-74
2022/07/19 11:31:18;;;;;;;5.40;2.25;;;33.40;42.00;;;;;;4909188;29;20072;-73
2022/07/19 11:33:45;;;;;;;5.28;2.30;;;33.50;40.80;;;;;;4912954;29;20048;-75
2022/07/19 11:36:13;;;;;;;5.97;1.92;;;33.50;41.60;;;;;;4914710;29;20159;-74
2022/07/19 11:38:50;;;;;;;4.20;1.98;;;33.60;40.80;;;;;;4914329;29;20048;-75
2022/07/19 11:41:18;;;;;;;4.80;2.00;;;33.70;41.30;;;;;;4914984;29;20052;-76
2022/07/19 11:43:57;;;;;;;4.78;2.10;;;33.70;41.00;;;;;;4912729;29;20076;-74
2022/07/19 11:46:26;;;;;;;5.80;2.00;;;33.80;40.30;;;;;;4912165;29;20468;-75
2022/07/19 11:48:59;;;;;;;6.90;2.25;;;33.90;39.20;;;;;;4912439;29;20103;-75
2022/07/19 11:51:26;;;;;;;6.63;2.45;;;33.90;37.90;;;;;;4914126;29;20055;-76
2022/07/19 11:53:54;;;;;;;3.17;2.13;;;34.00;38.30;;;;;;4912014;29;20036;-77
2022/07/19 11:56:22;;;;;;;6.20;2.22;;;34.10;38.20;;;;;;4906068;29;20501;-76
2022/07/19 11:58:50;;;;;;;7.00;2.40;;;34.20;39.60;;;;;;4915674;29;20079;-74
2022/07/19 12:01:24;;;;;;;6.22;2.25;;;34.20;38.90;;;;;;4913581;29;20040;-75
2022/07/19 12:04:07;;;;;;;6.47;2.80;;;34.30;38.40;;;;;;4912289;29;20091;-75
2022/07/19 12:06:51;;;;;;;5.68;2.70;;;34.40;38.50;;;;;;4913512;29;20127;-75
2022/07/19 12:09:20;;;;;;;12.38;2.38;;;34.40;39.10;;;;;;4911665;29;20173;-75
2022/07/19 12:11:50;;;;;;;7.45;2.00;;;34.50;39.70;;;;;;4915232;29;20044;-74
2022/07/19 12:14:37;;;;;;;6.22;2.00;;;34.50;38.50;;;;;;4912215;29;20056;-75
2022/07/19 12:17:11;;;;;;;4.53;2.10;;;34.60;38.30;;;;;;4900558;29;20127;-75
2022/07/19 12:19:39;;;;;;;7.45;2.20;;;34.70;37.50;;;;;;4911816;29;20133;-76
2022/07/19 12:22:05;;;;;;;3.97;1.92;;;34.70;38.50;;;;;;4913141;29;20044;-77
2022/07/19 12:24:42;;;;;;;7.32;2.70;;;34.80;37.60;;;;;;4908889;29;20067;-76
2022/07/19 12:27:10;;;;;;;6.80;2.92;;;34.80;37.70;;;;;;4907862;29;20401;-76
2022/07/19 12:29:47;;;;;;;9.43;3.70;;;34.80;38.00;;;;;;4909911;29;20519;-77
2022/07/19 12:32:25;;;;;;;6.40;2.55;;;34.90;37.50;;;;;;4907827;29;20039;-77
2022/07/19 12:34:59;;;;;;;5.82;2.30;;;34.90;36.90;;;;;;4905728;29;20048;-78
2022/07/19 12:37:30;;;;;;;6.28;2.70;;;34.90;36.10;;;;;;4916773;29;20065;-78
2022/07/19 12:40:11;;;;;;;5.03;2.05;;;35.00;36.00;;;;;;4911811;29;20519;-76
2022/07/19 12:43:03;;;;;;;8.52;2.40;;;35.00;36.00;;;;;;4913576;29;20048;-79
2022/07/19 12:45:34;;;;;;;7.15;2.20;;;35.10;36.10;;;;;;4905819;29;20052;-79
2022/07/19 12:48:00;;;;;;;6.25;2.20;;;35.10;36.10;;;;;;4912944;29;20052;-76
2022/07/19 12:50:36;;;;;;;4.07;2.38;;;35.10;36.80;;;;;;4906038;29;20087;-74
2022/07/19 12:53:04;;;;;;;5.20;2.00;;;35.30;36.80;;;;;;4906181;29;20127;-75
2022/07/19 12:55:31;;;;;;;7.13;2.50;;;35.40;36.40;;;;;;4911354;29;20044;-74
2022/07/19 12:57:57;;;;;;;7.95;3.38;;;35.50;35.90;;;;;;4912608;29;20051;-77
2022/07/19 13:00:24;;;;;;;;;;;35.50;36.50;;;;;;4912907;29;20518;-73
2022/07/19 13:02:51;;;;;;;6.53;2.28;;;35.50;37.30;;;;;;4911999;29;19955;-73
2022/07/19 13:05:17;;;;;;;5.20;2.10;;;35.60;36.70;;;;;;4910816;29;21818;-75
2022/07/19 13:07:43;;;;;;;3.40;1.90;;;35.70;35.70;;;;;;4909621;29;20047;-75
2022/07/19 13:10:09;;;;;;;5.95;2.55;;;35.70;35.30;;;;;;4908252;29;20045;-74
2022/07/19 13:12:35;;;;;;;;;;;35.80;36.10;;;;;;4902381;29;20118;-77
2022/07/19 13:15:01;;;;;;;4.82;2.50;;;35.70;36.40;;;;;;4899540;29;20366;-79
2022/07/19 13:17:26;;;;;;;8.07;3.30;;;35.80;35.80;;;;;;4910119;29;20048;-78
2022/07/19 13:19:52;;;;;;;4.38;2.53;;;35.80;34.70;;;;;;4911652;29;20099;-76
2022/07/19 13:22:18;;;;;;;4.85;2.70;;;35.90;33.80;;;;;;4910226;29;20044;-82
2022/07/19 13:24:44;;;;;;;4.97;2.65;;;36.00;34.10;;;;;;4915026;29;20074;-74